createdAt,value
2023-02-05T00:02:37.103Z,103762.16
2023-02-05T00:07:40.099Z,103758.44
2023-02-05T00:12:43.291Z,103743.38
2023-02-05T00:17:47.867Z,103729.50
2023-02-05T00:22:50.967Z,103720.44
2023-02-05T00:27:54.409Z,103708.75
2023-02-05T00:32:58.795Z,103700.88
2023-02-05T00:38:01.749Z,103702.47
2023-02-05T00:43:05.010Z,103712.81
2023-02-05T00:48:09.489Z,103716.34
2023-02-05T00:53:12.390Z,103705.72
2023-02-05T00:58:15.788Z,103704.78
2023-02-05T01:03:21.331Z,103696.63
2023-02-05T01:08:24.904Z,103713.78
2023-02-05T01:13:28.411Z,103717.03
2023-02-05T01:18:33.420Z,103721.53
2023-02-05T01:23:36.486Z,103725.41
2023-02-05T01:28:40.176Z,103727.59
2023-02-05T01:33:45.248Z,103736.38
2023-02-05T01:38:48.982Z,103732.53
2023-02-05T01:44:10.444Z,103729.75
2023-02-05T01:49:18.951Z,103733.31
2023-02-05T01:54:25.590Z,103727.00
2023-02-05T01:59:31.315Z,103737.31
2023-02-05T02:04:40.421Z,103725.94
2023-02-05T02:09:45.559Z,103717.00
2023-02-05T02:14:52.737Z,103696.38
2023-02-05T02:20:01.771Z,103701.78
2023-02-05T02:25:22.053Z,103696.25
2023-02-05T02:30:32.498Z,103692.69
2023-02-05T02:35:44.592Z,103669.16
2023-02-05T02:40:52.808Z,103655.78
2023-02-05T02:46:04.192Z,103631.94
2023-02-05T02:51:10.274Z,103636.59
2023-02-05T02:56:15.960Z,103655.09
2023-02-05T03:01:26.782Z,103672.25
2023-02-05T03:06:32.116Z,103654.59
2023-02-05T03:11:35.756Z,103643.03
2023-02-05T03:16:41.147Z,103664.69
2023-02-05T03:21:48.900Z,103652.66
2023-02-05T03:26:52.983Z,103666.03
2023-02-05T03:32:14.821Z,103663.47
2023-02-05T03:37:24.927Z,103672.81
2023-02-05T03:42:37.651Z,103677.13
2023-02-05T03:47:56.398Z,103680.38
2023-02-05T03:53:07.511Z,103674.38
2023-02-05T03:58:16.230Z,103673.59
2023-02-05T04:03:23.401Z,103680.03
2023-02-05T04:08:27.292Z,103685.78
2023-02-05T04:13:30.982Z,103690.84
2023-02-05T04:18:36.159Z,103688.13
2023-02-05T04:23:39.745Z,103678.91
2023-02-05T04:28:43.816Z,103689.03
2023-02-05T04:33:49.133Z,103681.03
2023-02-05T04:38:54.445Z,103681.97
2023-02-05T04:43:58.661Z,103667.22
2023-02-05T04:49:03.208Z,103673.53
2023-02-05T04:54:06.351Z,103676.31
2023-02-05T04:59:09.279Z,103670.28
2023-02-05T05:04:13.676Z,103681.53
2023-02-05T05:09:17.012Z,103680.91
2023-02-05T05:14:20.246Z,103706.91
2023-02-05T05:19:24.681Z,103705.84
2023-02-05T05:24:27.961Z,103726.63
2023-02-05T05:29:30.948Z,103714.03
2023-02-05T05:34:35.373Z,103710.69
2023-02-05T05:39:56.159Z,103707.47
2023-02-05T05:44:59.117Z,103718.38
2023-02-05T05:50:03.568Z,103710.88
2023-02-05T05:55:07.434Z,103727.75
2023-02-05T06:00:12.334Z,103729.78
2023-02-05T06:05:16.980Z,103740.34
2023-02-05T06:10:20.195Z,103746.34
2023-02-05T06:15:23.492Z,103743.38
2023-02-05T06:20:27.909Z,103759.16
2023-02-05T06:25:30.877Z,103773.16
2023-02-05T06:30:33.976Z,103769.94
2023-02-05T06:35:38.555Z,103783.59
2023-02-05T06:40:41.636Z,103805.91
2023-02-05T06:45:44.657Z,103809.88
2023-02-05T06:50:49.381Z,103836.13
2023-02-05T06:55:52.348Z,103853.34
2023-02-05T07:00:55.660Z,103853.28
2023-02-05T07:06:04.560Z,103870.66
2023-02-05T07:11:07.616Z,103872.50
2023-02-05T07:16:10.711Z,103877.41
2023-02-05T07:21:17.290Z,103896.16
2023-02-05T07:26:20.384Z,103897.06
2023-02-05T07:31:23.509Z,103904.63
2023-02-05T07:36:28.236Z,103922.28
2023-02-05T07:41:31.280Z,103923.41
2023-02-05T07:46:34.408Z,103939.06
2023-02-05T07:51:38.898Z,103951.19
2023-02-05T07:56:41.998Z,103974.06
2023-02-05T08:01:45.112Z,103962.34
2023-02-05T08:06:49.623Z,103954.19
2023-02-05T08:11:52.690Z,103966.09
2023-02-05T08:16:55.756Z,103961.38
2023-02-05T08:22:00.173Z,103968.00
2023-02-05T08:27:03.192Z,103971.28
2023-02-05T08:32:06.299Z,103978.88
2023-02-05T08:37:10.883Z,103970.72
2023-02-05T08:42:13.996Z,103983.22
2023-02-05T08:47:20.484Z,103977.31
2023-02-05T08:52:24.897Z,103987.63
2023-02-05T08:57:30.034Z,103997.19
2023-02-05T09:02:33.059Z,104000.78
2023-02-05T09:07:37.844Z,103982.13
2023-02-05T09:12:41.550Z,103988.31
2023-02-05T09:17:45.502Z,103992.94
2023-02-05T09:22:50.977Z,104001.59
2023-02-05T09:27:54.241Z,104004.03
2023-02-05T09:32:57.284Z,104005.28
2023-02-05T09:38:03.385Z,104007.28
2023-02-05T09:43:20.330Z,104018.81
2023-02-05T09:48:58.822Z,104015.44
2023-02-05T09:54:11.530Z,104005.91
2023-02-05T09:59:18.342Z,104009.91
2023-02-05T10:04:21.529Z,104000.94
2023-02-05T10:09:55.876Z,104002.19
2023-02-05T10:15:15.813Z,104034.84
2023-02-05T10:20:32.811Z,104035.16
2023-02-05T10:26:03.388Z,104022.19
2023-02-05T10:31:15.470Z,104020.47
2023-02-05T10:36:23.374Z,104013.97
2023-02-05T10:41:33.203Z,104018.19
2023-02-05T10:46:38.480Z,104011.09
2023-02-05T10:51:43.765Z,104025.38
2023-02-05T10:56:49.025Z,104015.84
2023-02-05T11:01:53.206Z,104045.91
2023-02-05T11:06:56.227Z,104055.88
2023-02-05T11:12:06.591Z,104050.53
2023-02-05T11:17:21.666Z,104032.66
2023-02-05T11:22:30.150Z,104038.75
2023-02-05T11:27:35.599Z,104039.06
2023-02-05T11:32:39.733Z,104040.41
2023-02-05T11:37:43.045Z,104038.72
2023-02-05T11:42:59.291Z,104041.81
2023-02-05T11:48:05.323Z,104043.66
2023-02-05T11:53:16.481Z,104024.59
2023-02-05T11:58:36.535Z,104042.44
2023-02-05T12:03:40.356Z,104040.53
2023-02-05T12:08:49.281Z,104036.97
2023-02-05T12:14:06.288Z,104039.56
2023-02-05T12:19:18.016Z,104037.78
2023-02-05T12:24:40.637Z,104044.25
2023-02-05T12:30:09.583Z,104046.75
2023-02-05T12:35:26.890Z,104049.09
2023-02-05T12:40:45.264Z,104043.00
2023-02-05T12:45:56.528Z,104050.31
2023-02-05T12:51:09.554Z,104022.16
2023-02-05T12:56:30.557Z,104053.66
2023-02-05T13:01:42.134Z,104047.22
2023-02-05T13:06:51.332Z,104041.78
2023-02-05T13:12:00.155Z,104054.59
2023-02-05T13:17:07.873Z,104053.47
2023-02-05T13:22:35.883Z,104054.16
2023-02-05T13:28:00.849Z,104063.81
2023-02-05T13:33:08.129Z,104057.88
2023-02-05T13:38:28.684Z,104076.25
2023-02-05T13:44:00.663Z,104083.16
2023-02-05T13:49:50.745Z,104077.63
2023-02-05T13:55:24.049Z,104095.41
2023-02-05T14:00:28.493Z,104084.31
2023-02-05T14:05:36.017Z,104092.94
2023-02-05T14:10:42.806Z,104084.28
2023-02-05T14:15:46.666Z,104098.56
2023-02-05T14:20:51.065Z,104092.19
2023-02-05T14:26:11.643Z,104104.31
2023-02-05T14:31:48.536Z,104085.72
2023-02-05T14:36:53.196Z,104100.34
2023-02-05T14:41:59.198Z,104091.94
2023-02-05T14:47:06.107Z,104096.06
2023-02-05T14:52:27.339Z,104091.66
2023-02-05T14:57:40.549Z,104095.69
2023-02-05T15:03:22.959Z,104106.75
2023-02-05T15:08:41.516Z,104115.88
2023-02-05T15:14:24.484Z,104107.59
2023-02-05T15:19:29.069Z,104122.09
2023-02-05T15:24:35.176Z,104133.69
2023-02-05T15:29:43.624Z,104131.53
2023-02-05T15:34:53.691Z,104151.84
2023-02-05T15:39:59.240Z,104144.78
2023-02-05T15:45:18.077Z,104163.09
2023-02-05T15:50:22.616Z,104157.41
2023-02-05T15:55:28.967Z,104170.78
2023-02-05T16:00:35.138Z,104182.94
2023-02-05T16:05:39.734Z,104184.75
2023-02-05T16:10:54.349Z,104183.34
2023-02-05T16:16:04.104Z,104198.56
2023-02-05T16:21:17.767Z,104205.00
2023-02-05T16:26:24.556Z,104211.88
2023-02-05T16:31:29.877Z,104213.53
2023-02-05T16:36:38.235Z,104209.03
2023-02-05T16:41:45.618Z,104219.78
2023-02-05T16:47:06.958Z,104219.28
2023-02-05T16:52:41.931Z,104233.41
2023-02-05T16:57:47.560Z,104227.31
2023-02-05T17:02:54.085Z,104240.72
2023-02-05T17:08:01.644Z,104240.16
2023-02-05T17:13:06.112Z,104243.09
2023-02-05T17:18:27.770Z,104250.56
2023-02-05T17:23:32.196Z,104258.59
2023-02-05T17:28:40.168Z,104253.03
2023-02-05T17:33:43.327Z,104268.97
2023-02-05T17:38:48.836Z,104263.44
2023-02-05T17:43:51.992Z,104267.00
2023-02-05T17:48:55.374Z,104275.59
2023-02-05T17:53:59.930Z,104268.25
2023-02-05T17:59:03.104Z,104267.03
2023-02-05T18:04:06.585Z,104263.59
2023-02-05T18:09:12.503Z,104256.75
2023-02-05T18:14:16.020Z,104269.13
2023-02-05T18:19:19.096Z,104276.59
2023-02-05T18:24:23.552Z,104276.81
2023-02-05T18:29:27.782Z,104289.16
2023-02-05T18:34:30.772Z,104291.06
2023-02-05T18:39:35.306Z,104288.69
2023-02-05T18:44:38.399Z,104285.50
2023-02-05T18:49:41.389Z,104295.22
2023-02-05T18:54:45.838Z,104290.81
2023-02-05T18:59:49.597Z,104299.56
2023-02-05T19:04:56.034Z,104306.66
2023-02-05T19:10:01.572Z,104310.38
2023-02-05T19:15:05.034Z,104309.84
2023-02-05T19:20:08.723Z,104310.28
2023-02-05T19:25:13.376Z,104298.69
2023-02-05T19:30:16.833Z,104340.09
2023-02-05T19:35:20.047Z,104344.06
2023-02-05T19:40:24.683Z,104347.03
2023-02-05T19:45:28.028Z,104339.63
2023-02-05T19:50:31.056Z,104330.34
2023-02-05T19:55:36.100Z,104350.19
2023-02-05T20:00:39.397Z,104344.25
2023-02-05T20:05:42.682Z,104362.38
2023-02-05T20:10:47.195Z,104351.78
2023-02-05T20:15:50.271Z,104350.25
2023-02-05T20:20:53.293Z,104353.88
2023-02-05T20:25:58.851Z,104339.22
2023-02-05T20:31:19.733Z,104352.47
2023-02-05T20:36:23.172Z,104345.63
2023-02-05T20:41:34.561Z,104370.56
2023-02-05T20:46:37.596Z,104373.00
2023-02-05T20:51:40.979Z,104379.16
2023-02-05T20:56:45.576Z,104376.22
2023-02-05T21:01:48.646Z,104380.09
2023-02-05T21:06:53.580Z,104397.78
2023-02-05T21:11:58.055Z,104404.09
2023-02-05T21:17:01.142Z,104398.91
2023-02-05T21:22:04.256Z,104388.84
2023-02-05T21:27:08.723Z,104368.78
2023-02-05T21:32:11.904Z,104385.13
2023-02-05T21:37:15.002Z,104393.66
2023-02-05T21:42:19.437Z,104392.19
2023-02-05T21:47:22.515Z,104395.50
2023-02-05T21:52:25.787Z,104389.00
2023-02-05T21:57:30.385Z,104395.31
2023-02-05T22:02:33.390Z,104391.03
2023-02-05T22:07:36.545Z,104400.84
2023-02-05T22:12:41.234Z,104391.00
2023-02-05T22:17:44.472Z,104398.97
2023-02-05T22:22:47.478Z,104406.56
2023-02-05T22:27:52.237Z,104410.97
2023-02-05T22:32:55.223Z,104404.66
2023-02-05T22:37:58.192Z,104405.56
2023-02-05T22:43:02.606Z,104407.25
2023-02-05T22:48:08.213Z,104412.47
2023-02-05T22:53:12.077Z,104416.91
2023-02-05T22:58:16.830Z,104416.72
2023-02-05T23:03:19.851Z,104411.38
2023-02-05T23:08:23.087Z,104404.50
2023-02-05T23:13:27.775Z,104392.41
2023-02-05T23:18:30.936Z,104386.31
2023-02-05T23:23:34.031Z,104389.66
2023-02-05T23:28:38.593Z,104398.03
2023-02-05T23:33:41.563Z,104407.16
2023-02-05T23:38:44.722Z,104412.16
2023-02-05T23:43:49.182Z,104400.25
2023-02-05T23:48:52.135Z,104399.53
2023-02-05T23:53:55.294Z,104397.16
2023-02-05T23:59:00.289Z,104398.09
